Terminal Aerodrome Forecast
Issued by NWS Cleveland, OH

Home | Current Version | Previous Version | Text Only | Print | Product List | Glossary On
Versions: 1 2 3 4 5 6 7 8 9 10 11 12 13 14 15 16 17 18 19 20 21 22 23 24 25 26 27 28 29
529
FTUS41 KCLE 252333
TAFCLE
TAF
KCLE 252333Z 2600/2706 27020G30KT P6SM SCT025 OVC035
      TEMPO 2600/2602 6SM -SN BKN025 OVC035
     FM260200 27015G25KT P6SM -SHSN BKN025 OVC035
     FM260500 26014KT P6SM OVC025
     FM261600 23008KT P6SM BKN035
     FM262100 21015G25KT P6SM SCT035 BKN100=

USA.gov is the U.S. government's official web portal to all federal, state and local government web resources and services.